sensor_id;sensor_type;location;lat;lon;timestamp;pressure;altitude;pressure_sealevel;temperature;humidity
37694;BME280;23531;50.122;8.644;2023-11-19T02:04:46;100207.50;;;9.00;100.00
37694;BME280;23531;50.122;8.644;2023-11-19T02:06:48;100201.69;;;9.03;100.00
37694;BME280;23531;50.122;8.644;2023-11-19T02:08:49;100210.16;;;8.93;100.00
37694;BME280;23531;50.122;8.644;2023-11-19T02:10:51;100209.56;;;8.91;100.00
37694;BME280;23531;50.122;8.644;2023-11-19T02:12:52;100198.63;;;8.99;100.00
37694;BME280;23531;50.122;8.644;2023-11-19T02:14:55;100203.97;;;8.99;100.00
37694;BME280;23531;50.122;8.644;2023-11-19T02:16:56;100198.00;;;8.97;100.00
37694;BME280;23531;50.122;8.644;2023-11-19T02:18:57;100184.16;;;8.87;100.00
37694;BME280;23531;50.122;8.644;2023-11-19T02:21:00;100175.91;;;8.82;100.00
37694;BME280;23531;50.122;8.644;2023-11-19T02:23:01;100185.00;;;8.94;100.00
37694;BME280;23531;50.122;8.644;2023-11-19T02:25:04;100184.59;;;8.97;100.00
37694;BME280;23531;50.122;8.644;2023-11-19T02:27:06;100179.63;;;8.94;100.00
37694;BME280;23531;50.122;8.644;2023-11-19T02:29:11;100177.78;;;9.01;100.00
37694;BME280;23531;50.122;8.644;2023-11-19T02:31:13;100188.94;;;9.12;100.00
37694;BME280;23531;50.122;8.644;2023-11-19T02:33:14;100178.81;;;9.07;100.00
37694;BME280;23531;50.122;8.644;2023-11-19T02:35:15;100187.88;;;9.06;100.00
37694;BME280;23531;50.122;8.644;2023-11-19T02:37:16;100193.06;;;9.14;100.00
37694;BME280;23531;50.122;8.644;2023-11-19T02:39:19;100184.78;;;9.16;100.00
37694;BME280;23531;50.122;8.644;2023-11-19T02:41:21;100181.06;;;9.17;100.00
37694;BME280;23531;50.122;8.644;2023-11-19T02:43:23;100179.63;;;9.21;100.00
37694;BME280;23531;50.122;8.644;2023-11-19T02:45:24;100177.56;;;9.09;100.00
37694;BME280;23531;50.122;8.644;2023-11-19T02:47:26;100176.31;;;9.05;100.00
37694;BME280;23531;50.122;8.644;2023-11-19T02:49:28;100174.28;;;9.14;100.00
37694;BME280;23531;50.122;8.644;2023-11-19T02:51:29;100166.63;;;9.18;100.00
37694;BME280;23531;50.122;8.644;2023-11-19T02:53:30;100163.13;;;9.24;100.00
37694;BME280;23531;50.122;8.644;2023-11-19T02:55:32;100169.94;;;9.20;100.00
37694;BME280;23531;50.122;8.644;2023-11-19T02:57:38;100170.56;;;9.22;100.00
37694;BME280;23531;50.122;8.644;2023-11-19T02:59:40;100169.53;;;9.23;100.00
37694;BME280;23531;50.122;8.644;2023-11-19T03:01:45;100175.94;;;9.22;100.00
37694;BME280;23531;50.122;8.644;2023-11-19T03:03:50;100176.97;;;9.21;100.00
37694;BME280;23531;50.122;8.644;2023-11-19T03:05:54;100167.66;;;9.30;100.00
37694;BME280;23531;50.122;8.644;2023-11-19T03:07:56;100175.09;;;9.28;100.00
37694;BME280;23531;50.122;8.644;2023-11-19T03:09:57;100163.75;;;9.32;100.00
37694;BME280;23531;50.122;8.644;2023-11-19T03:11:59;100153.63;;;9.28;100.00
37694;BME280;23531;50.122;8.644;2023-11-19T03:14:00;100137.53;;;9.28;100.00
37694;BME280;23531;50.122;8.644;2023-11-19T03:16:03;100136.28;;;9.30;100.00
37694;BME280;23531;50.122;8.644;2023-11-19T03:18:05;100145.78;;;9.33;100.00
37694;BME280;23531;50.122;8.644;2023-11-19T03:20:06;100143.72;;;9.28;100.00
37694;BME280;23531;50.122;8.644;2023-11-19T03:22:09;100143.31;;;9.25;100.00
37694;BME280;23531;50.122;8.644;2023-11-19T03:24:12;100141.47;;;9.19;100.00
37694;BME280;23531;50.122;8.644;2023-11-19T03:26:15;100138.34;;;9.15;100.00
37694;BME280;23531;50.122;8.644;2023-11-19T03:28:16;100141.25;;;9.20;100.00
37694;BME280;23531;50.122;8.644;2023-11-19T03:30:18;100138.56;;;9.20;100.00
37694;BME280;23531;50.122;8.644;2023-11-19T03:32:20;100141.25;;;9.27;100.00
37694;BME280;23531;50.122;8.644;2023-11-19T03:34:23;100147.84;;;9.31;100.00
37694;BME280;23531;50.122;8.644;2023-11-19T03:36:24;100147.66;;;9.32;100.00
37694;BME280;23531;50.122;8.644;2023-11-19T03:38:26;100154.25;;;9.30;100.00
37694;BME280;23531;50.122;8.644;2023-11-19T03:40:27;100144.34;;;9.24;100.00
37694;BME280;23531;50.122;8.644;2023-11-19T03:42:28;100138.38;;;9.22;100.00
37694;BME280;23531;50.122;8.644;2023-11-19T03:44:30;100131.53;;;9.26;100.00
37694;BME280;23531;50.122;8.644;2023-11-19T03:46:31;100138.16;;;9.23;100.00
37694;BME280;23531;50.122;8.644;2023-11-19T03:48:33;100144.75;;;9.27;100.00
37694;BME280;23531;50.122;8.644;2023-11-19T03:50:34;100140.44;;;9.20;100.00
37694;BME280;23531;50.122;8.644;2023-11-19T03:52:36;100146.00;;;9.18;100.00
37694;BME280;23531;50.122;8.644;2023-11-19T03:54:36;100149.31;;;9.20;100.00
37694;BME280;23531;50.122;8.644;2023-11-19T03:56:37;100145.38;;;9.23;100.00
37694;BME280;23531;50.122;8.644;2023-11-19T03:58:39;100148.47;;;9.33;100.00
37694;BME280;23531;50.122;8.644;2023-11-19T04:00:39;100145.38;;;9.36;100.00
37694;BME280;23531;50.122;8.644;2023-11-19T04:02:40;100139.19;;;9.29;100.00
37694;BME280;23531;50.122;8.644;2023-11-19T04:04:42;100134.00;;;9.27;100.00
37694;BME280;23531;50.122;8.644;2023-11-19T04:06:44;100132.78;;;9.30;100.00
37694;BME280;23531;50.122;8.644;2023-11-19T04:08:46;100137.53;;;9.34;100.00
37694;BME280;23531;50.122;8.644;2023-11-19T04:10:47;100132.78;;;9.30;100.00
37694;BME280;23531;50.122;8.644;2023-11-19T04:12:48;100117.47;;;9.37;100.00
37694;BME280;23531;50.122;8.644;2023-11-19T04:14:50;100121.00;;;9.37;100.00
37694;BME280;23531;50.122;8.644;2023-11-19T04:16:50;100119.34;;;9.43;100.00
37694;BME280;23531;50.122;8.644;2023-11-19T04:18:52;100112.75;;;9.45;100.00
37694;BME280;23531;50.122;8.644;2023-11-19T04:20:52;100120.78;;;9.39;100.00
37694;BME280;23531;50.122;8.644;2023-11-19T04:22:55;100127.56;;;9.48;100.00
37694;BME280;23531;50.122;8.644;2023-11-19T04:24:56;100127.41;;;9.43;100.00
37694;BME280;23531;50.122;8.644;2023-11-19T04:26:56;100117.91;;;9.47;100.00
37694;BME280;23531;50.122;8.644;2023-11-19T04:28:58;100120.75;;;9.52;100.00
37694;BME280;23531;50.122;8.644;2023-11-19T04:30:59;100117.03;;;9.53;100.00
37694;BME280;23531;50.122;8.644;2023-11-19T04:33:00;100101.16;;;9.58;100.00
37694;BME280;23531;50.122;8.644;2023-11-19T04:35:01;100106.72;;;9.50;100.00
37694;BME280;23531;50.122;8.644;2023-11-19T04:37:01;100105.69;;;9.51;100.00
37694;BME280;23531;50.122;8.644;2023-11-19T04:39:04;100097.47;;;9.46;100.00
37694;BME280;23531;50.122;8.644;2023-11-19T04:41:09;100088.13;;;9.48;100.00
37694;BME280;23531;50.122;8.644;2023-11-19T04:43:11;100083.63;;;9.42;100.00
37694;BME280;23531;50.122;8.644;2023-11-19T04:45:13;100086.53;;;9.41;100.00
37694;BME280;23531;50.122;8.644;2023-11-19T04:47:16;100100.16;;;9.39;100.00
37694;BME280;23531;50.122;8.644;2023-11-19T04:49:16;100087.56;;;9.40;100.00
37694;BME280;23531;50.122;8.644;2023-11-19T04:51:18;100097.88;;;9.43;100.00
37694;BME280;23531;50.122;8.644;2023-11-19T04:53:18;100093.34;;;9.43;100.00
37694;BME280;23531;50.122;8.644;2023-11-19T04:55:21;100094.13;;;9.51;100.00
37694;BME280;23531;50.122;8.644;2023-11-19T04:57:22;100098.06;;;9.55;100.00
37694;BME280;23531;50.122;8.644;2023-11-19T04:59:24;100090.78;;;9.62;100.00
37694;BME280;23531;50.122;8.644;2023-11-19T05:01:25;100088.56;;;9.59;100.00
37694;BME280;23531;50.122;8.644;2023-11-19T05:03:25;100098.88;;;9.55;100.00
37694;BME280;23531;50.122;8.644;2023-11-19T05:05:27;100092.06;;;9.59;100.00
37694;BME280;23531;50.122;8.644;2023-11-19T05:07:28;100099.06;;;9.60;100.00
37694;BME280;23531;50.122;8.644;2023-11-19T05:09:29;100108.13;;;9.66;100.00
37694;BME280;23531;50.122;8.644;2023-11-19T05:11:32;100106.25;;;9.73;100.00
37694;BME280;23531;50.122;8.644;2023-11-19T05:13:34;100104.38;;;9.73;100.00
37694;BME280;23531;50.122;8.644;2023-11-19T05:15:35;100113.91;;;9.69;100.00
37694;BME280;23531;50.122;8.644;2023-11-19T05:17:36;100112.06;;;9.63;100.00
37694;BME280;23531;50.122;8.644;2023-11-19T05:19:39;100114.34;;;9.66;100.00
37694;BME280;23531;50.122;8.644;2023-11-19T05:21:41;100103.59;;;9.60;100.00
37694;BME280;23531;50.122;8.644;2023-11-19T05:23:43;100102.81;;;9.59;100.00
37694;BME280;23531;50.122;8.644;2023-11-19T05:25:44;100092.84;;;9.66;100.00
37694;BME280;23531;50.122;8.644;2023-11-19T05:27:47;100089.97;;;9.61;100.00
37694;BME280;23531;50.122;8.644;2023-11-19T05:29:48;100092.06;;;9.59;100.00
37694;BME280;23531;50.122;8.644;2023-11-19T05:31:49;100102.81;;;9.59;100.00
37694;BME280;23531;50.122;8.644;2023-11-19T05:33:50;100108.13;;;9.66;100.00
37694;BME280;23531;50.122;8.644;2023-11-19T05:35:51;100108.94;;;9.73;100.00
37694;BME280;23531;50.122;8.644;2023-11-19T05:37:52;100106.88;;;9.68;100.00
37694;BME280;23531;50.122;8.644;2023-11-19T05:39:54;100108.97;;;9.66;100.00
37694;BME280;23531;50.122;8.644;2023-11-19T05:41:55;100103.59;;;9.66;100.00
37694;BME280;23531;50.122;8.644;2023-11-19T05:43:58;100091.63;;;9.62;100.00
37694;BME280;23531;50.122;8.644;2023-11-19T05:45:59;100080.25;;;9.60;100.00
37694;BME280;23531;50.122;8.644;2023-11-19T05:48:01;100072.63;;;9.64;100.00
37694;BME280;23531;50.122;8.644;2023-11-19T05:50:04;100073.03;;;9.67;100.00
37694;BME280;23531;50.122;8.644;2023-11-19T05:52:06;100075.91;;;9.66;100.00
37694;BME280;23531;50.122;8.644;2023-11-19T05:54:09;100084.59;;;9.68;100.00
37694;BME280;23531;50.122;8.644;2023-11-19T05:56:11;100083.34;;;9.70;100.00
37694;BME280;23531;50.122;8.644;2023-11-19T05:58:12;100078.78;;;9.71;100.00
37694;BME280;23531;50.122;8.644;2023-11-19T06:00:15;100073.00;;;9.74;100.00
37694;BME280;23531;50.122;8.644;2023-11-19T06:02:17;100083.09;;;9.78;100.00
37694;BME280;23531;50.122;8.644;2023-11-19T06:04:19;100084.72;;;9.86;100.00
37694;BME280;23531;50.122;8.644;2023-11-19T06:06:21;100089.03;;;9.87;100.00
37694;BME280;23531;50.122;8.644;2023-11-19T06:08:22;100094.22;;;9.89;100.00
37694;BME280;23531;50.122;8.644;2023-11-19T06:10:23;100093.13;;;9.96;100.00
37694;BME280;23531;50.122;8.644;2023-11-19T06:12:29;100092.75;;;9.93;100.00
37694;BME280;23531;50.122;8.644;2023-11-19T06:14:33;100093.34;;;9.95;100.00
37694;BME280;23531;50.122;8.644;2023-11-19T06:16:36;100102.84;;;9.97;100.00
37694;BME280;23531;50.122;8.644;2023-11-19T06:18:39;100101.19;;;9.96;100.00
37694;BME280;23531;50.122;8.644;2023-11-19T06:20:41;100105.53;;;9.97;100.00
37694;BME280;23531;50.122;8.644;2023-11-19T06:22:43;100110.28;;;9.95;100.00
37694;BME280;23531;50.122;8.644;2023-11-19T06:24:43;100112.34;;;10.00;100.00
37694;BME280;23531;50.122;8.644;2023-11-19T06:26:45;100109.44;;;10.01;100.00
37694;BME280;23531;50.122;8.644;2023-11-19T06:28:45;100114.00;;;10.01;100.00
37694;BME280;23531;50.122;8.644;2023-11-19T06:30:46;100108.41;;;10.02;100.00
37694;BME280;23531;50.122;8.644;2023-11-19T06:32:49;100100.13;;;10.04;100.00
37694;BME280;23531;50.122;8.644;2023-11-19T06:34:50;100114.16;;;10.06;100.00
37694;BME280;23531;50.122;8.644;2023-11-19T06:36:51;100105.69;;;10.09;100.00
37694;BME280;23531;50.122;8.644;2023-11-19T06:38:52;100108.78;;;10.06;100.00
37694;BME280;23531;50.122;8.644;2023-11-19T06:40:55;100118.28;;;10.08;100.00
37694;BME280;23531;50.122;8.644;2023-11-19T06:42:56;100118.94;;;10.04;100.00
37694;BME280;23531;50.122;8.644;2023-11-19T06:44:57;100118.28;;;10.08;100.00
37694;BME280;23531;50.122;8.644;2023-11-19T06:46:59;100118.28;;;10.08;100.00
37694;BME280;23531;50.122;8.644;2023-11-19T06:49:03;100119.31;;;10.14;100.00
37694;BME280;23531;50.122;8.644;2023-11-19T06:51:04;100117.19;;;10.16;100.00
37694;BME280;23531;50.122;8.644;2023-11-19T06:53:06;100118.28;;;10.15;100.00
37694;BME280;23531;50.122;8.644;2023-11-19T06:55:10;100122.19;;;10.12;100.00
37694;BME280;23531;50.122;8.644;2023-11-19T06:57:12;100123.22;;;10.11;100.00
37694;BME280;23531;50.122;8.644;2023-11-19T06:59:12;100127.78;;;10.11;100.00
37694;BME280;23531;50.122;8.644;2023-11-19T07:01:14;100118.06;;;10.10;100.00
37694;BME280;23531;50.122;8.644;2023-11-19T07:03:15;100124.47;;;10.09;100.00
37694;BME280;23531;50.122;8.644;2023-11-19T07:05:18;100120.75;;;10.10;100.00
37694;BME280;23531;50.122;8.644;2023-11-19T07:07:19;100118.91;;;10.10;100.00
37694;BME280;23531;50.122;8.644;2023-11-19T07:09:21;100116.41;;;10.09;100.00
37694;BME280;23531;50.122;8.644;2023-11-19T07:11:21;100118.28;;;10.15;100.00
37694;BME280;23531;50.122;8.644;2023-11-19T07:13:22;100121.97;;;10.21;100.00
37694;BME280;23531;50.122;8.644;2023-11-19T07:15:24;100123.22;;;10.18;100.00
37694;BME280;23531;50.122;8.644;2023-11-19T07:17:25;100115.34;;;10.16;100.00
37694;BME280;23531;50.122;8.644;2023-11-19T07:19:27;100122.19;;;10.19;100.00
37694;BME280;23531;50.122;8.644;2023-11-19T07:21:30;100119.47;;;10.26;100.00
37694;BME280;23531;50.122;8.644;2023-11-19T07:23:31;100120.06;;;10.28;100.00
37694;BME280;23531;50.122;8.644;2023-11-19T07:25:34;100118.00;;;10.30;100.00
37694;BME280;23531;50.122;8.644;2023-11-19T07:27:35;100124.81;;;10.32;100.00
37694;BME280;23531;50.122;8.644;2023-11-19T07:29:37;100121.09;;;10.33;100.00
37694;BME280;23531;50.122;8.644;2023-11-19T07:31:38;100120.66;;;10.36;100.00
37694;BME280;23531;50.122;8.644;2023-11-19T07:33:39;100120.19;;;10.39;100.00
37694;BME280;23531;50.122;8.644;2023-11-19T07:35:42;100133.84;;;10.44;100.00
37694;BME280;23531;50.122;8.644;2023-11-19T07:37:45;100134.88;;;10.43;100.00
37694;BME280;23531;50.122;8.644;2023-11-19T07:39:47;100120.19;;;10.46;100.00
37694;BME280;23531;50.122;8.644;2023-11-19T07:41:48;100123.47;;;10.48;100.00
37694;BME280;23531;50.122;8.644;2023-11-19T07:43:49;100117.28;;;10.47;100.00
37694;BME280;23531;50.122;8.644;2023-11-19T07:45:50;100122.66;;;10.47;100.00
37694;BME280;23531;50.122;8.644;2023-11-19T07:47:52;100122.19;;;10.50;100.00
37694;BME280;23531;50.122;8.644;2023-11-19T07:49:53;100129.41;;;10.57;100.00
37694;BME280;23531;50.122;8.644;2023-11-19T07:51:54;100124.25;;;10.55;100.00
37694;BME280;23531;50.122;8.644;2023-11-19T07:53:57;100121.13;;;10.58;100.00
37694;BME280;23531;50.122;8.644;2023-11-19T07:55:58;100122.56;;;10.61;100.00
37694;BME280;23531;50.122;8.644;2023-11-19T07:58:00;100129.56;;;10.62;100.00
37694;BME280;23531;50.122;8.644;2023-11-19T08:00:02;100138.25;;;10.64;100.00
37694;BME280;23531;50.122;8.644;2023-11-19T08:02:04;100136.78;;;10.68;100.00
37694;BME280;23531;50.122;8.644;2023-11-19T08:04:05;100147.13;;;10.71;100.00
37694;BME280;23531;50.122;8.644;2023-11-19T08:06:06;100149.81;;;10.71;100.00
37694;BME280;23531;50.122;8.644;2023-11-19T08:08:08;100158.91;;;10.70;100.00
37694;BME280;23531;50.122;8.644;2023-11-19T08:10:09;100148.75;;;10.72;100.00
37694;BME280;23531;50.122;8.644;2023-11-19T08:12:11;100148.31;;;10.75;100.00
37694;BME280;23531;50.122;8.644;2023-11-19T08:14:14;100158.03;;;10.76;100.00
37694;BME280;23531;50.122;8.644;2023-11-19T08:16:15;100163.81;;;10.79;100.00
37694;BME280;23531;50.122;8.644;2023-11-19T08:18:16;100159.66;;;10.83;100.00
37694;BME280;23531;50.122;8.644;2023-11-19T08:20:18;100159.16;;;10.93;100.00
37694;BME280;23531;50.122;8.644;2023-11-19T08:22:19;100158.94;;;10.95;100.00
37694;BME280;23531;50.122;8.644;2023-11-19T08:24:21;100143.59;;;10.95;100.00
37694;BME280;23531;50.122;8.644;2023-11-19T08:26:24;100135.31;;;10.97;100.00
37694;BME280;23531;50.122;8.644;2023-11-19T08:28:25;100143.38;;;10.97;100.00
37694;BME280;23531;50.122;8.644;2023-11-19T08:30:27;100142.56;;;10.96;100.00
37694;BME280;23531;50.122;8.644;2023-11-19T08:32:28;100152.94;;;10.93;100.00
37694;BME280;23531;50.122;8.644;2023-11-19T08:34:30;100159.53;;;10.97;100.00
37694;BME280;23531;50.122;8.644;2023-11-19T08:36:31;100157.66;;;10.97;100.00
37694;BME280;23531;50.122;8.644;2023-11-19T08:38:32;100163.50;;;10.94;100.00
37694;BME280;23531;50.122;8.644;2023-11-19T08:40:34;100171.31;;;10.96;100.00
37694;BME280;23531;50.122;8.644;2023-11-19T08:42:36;100167.38;;;10.98;100.00
37694;BME280;23531;50.122;8.644;2023-11-19T08:44:39;100171.94;;;10.98;100.00
37694;BME280;23531;50.122;8.644;2023-11-19T08:46:46;100155.56;;;10.99;100.00
37694;BME280;23531;50.122;8.644;2023-11-19T08:48:47;100159.31;;;10.98;100.00
37694;BME280;23531;50.122;8.644;2023-11-19T08:50:48;100168.59;;;11.02;100.00
37694;BME280;23531;50.122;8.644;2023-11-19T08:52:49;100169.00;;;11.06;100.00
37694;BME280;23531;50.122;8.644;2023-11-19T08:54:51;100173.56;;;11.05;100.00
37694;BME280;23531;50.122;8.644;2023-11-19T08:56:52;100168.75;;;11.07;100.00
37694;BME280;23531;50.122;8.644;2023-11-19T08:58:54;100164.03;;;11.03;100.00
37694;BME280;23531;50.122;8.644;2023-11-19T09:00:55;100162.94;;;11.10;100.00
37694;BME280;23531;50.122;8.644;2023-11-19T09:02:56;100167.72;;;11.08;100.00
37694;BME280;23531;50.122;8.644;2023-11-19T09:04:58;100174.13;;;11.07;100.00
37694;BME280;23531;50.122;8.644;2023-11-19T09:06:59;100168.31;;;11.10;100.00
37694;BME280;23531;50.122;8.644;2023-11-19T09:09:00;100164.19;;;11.08;100.00
37694;BME280;23531;50.122;8.644;2023-11-19T09:11:06;100161.78;;;11.00;100.00
37694;BME280;23531;50.122;8.644;2023-11-19T09:13:07;100174.41;;;10.99;100.00
37694;BME280;23531;50.122;8.644;2023-11-19T09:15:10;100166.19;;;10.94;100.00
37694;BME280;23531;50.122;8.644;2023-11-19T09:17:11;100167.38;;;10.98;100.00
37694;BME280;23531;50.122;8.644;2023-11-19T09:19:13;100154.13;;;10.97;100.00
37694;BME280;23531;50.122;8.644;2023-11-19T09:21:14;100151.03;;;11.00;100.00
37694;BME280;23531;50.122;8.644;2023-11-19T09:23:16;100161.34;;;11.03;100.00
37694;BME280;23531;50.122;8.644;2023-11-19T09:25:17;100158.44;;;11.04;100.00
37694;BME280;23531;50.122;8.644;2023-11-19T09:27:18;100163.63;;;11.06;100.00
37694;BME280;23531;50.122;8.644;2023-11-19T09:29:20;100158.59;;;11.09;100.00
37694;BME280;23531;50.122;8.644;2023-11-19T09:31:23;100158.00;;;11.07;100.00
37694;BME280;23531;50.122;8.644;2023-11-19T09:33:24;100161.28;;;11.09;100.00
37694;BME280;23531;50.122;8.644;2023-11-19T09:35:26;100165.19;;;11.13;100.00
37694;BME280;23531;50.122;8.644;2023-11-19T09:37:28;100168.84;;;11.19;100.00
37694;BME280;23531;50.122;8.644;2023-11-19T09:39:29;100166.56;;;11.22;100.00
37694;BME280;23531;50.122;8.644;2023-11-19T09:41:30;100172.56;;;11.24;100.00
37694;BME280;23531;50.122;8.644;2023-11-19T09:43:31;100166.75;;;11.27;100.00
37694;BME280;23531;50.122;8.644;2023-11-19T09:45:32;100166.84;;;11.39;100.00
37694;BME280;23531;50.122;8.644;2023-11-19T09:47:46;100176.41;;;11.53;100.00
37694;BME280;23531;50.122;8.644;2023-11-19T09:49:47;100176.41;;;11.53;100.00
37694;BME280;23531;50.122;8.644;2023-11-19T09:51:49;100176.69;;;11.70;100.00
37694;BME280;23531;50.122;8.644;2023-11-19T09:53:50;100169.41;;;11.71;100.00
37694;BME280;23531;50.122;8.644;2023-11-19T09:55:52;100169.41;;;11.71;100.00
37694;BME280;23531;50.122;8.644;2023-11-19T09:57:53;100177.06;;;11.74;100.00
37694;BME280;23531;50.122;8.644;2023-11-19T09:59:54;100165.78;;;11.83;100.00
37694;BME280;23531;50.122;8.644;2023-11-19T10:01:56;100163.41;;;11.93;100.00
37694;BME280;23531;50.122;8.644;2023-11-19T10:03:59;100162.25;;;12.01;100.00
37694;BME280;23531;50.122;8.644;2023-11-19T10:06:00;100162.13;;;11.96;100.00
37694;BME280;23531;50.122;8.644;2023-11-19T10:08:01;100164.00;;;11.95;100.00
37694;BME280;23531;50.122;8.644;2023-11-19T10:10:03;100168.56;;;11.95;100.00
37694;BME280;23531;50.122;8.644;2023-11-19T10:12:05;100165.03;;;11.94;100.00
37694;BME280;23531;50.122;8.644;2023-11-19T10:14:06;100159.44;;;11.96;100.00
37694;BME280;23531;50.122;8.644;2023-11-19T10:16:08;100153.22;;;11.95;100.00
37694;BME280;23531;50.122;8.644;2023-11-19T10:18:11;100149.59;;;12.02;100.00
37694;BME280;23531;50.122;8.644;2023-11-19T10:20:16;100161.00;;;12.04;100.00
37694;BME280;23531;50.122;8.644;2023-11-19T10:22:19;100156.22;;;12.06;100.00
37694;BME280;23531;50.122;8.644;2023-11-19T10:24:27;100144.94;;;12.09;100.00
37694;BME280;23531;50.122;8.644;2023-11-19T10:26:32;100140.16;;;12.11;100.00
37694;BME280;23531;50.122;8.644;2023-11-19T10:28:38;100136.34;;;12.18;100.00
37694;BME280;23531;50.122;8.644;2023-11-19T10:30:39;100136.69;;;12.22;100.00
37694;BME280;23531;50.122;8.644;2023-11-19T10:32:42;100138.34;;;12.23;100.00
37694;BME280;23531;50.122;8.644;2023-11-19T10:34:44;100131.59;;;12.32;100.00
37694;BME280;23531;50.122;8.644;2023-11-19T10:36:46;100141.47;;;12.38;100.00
37694;BME280;23531;50.122;8.644;2023-11-19T10:38:56;100141.59;;;12.43;100.00
37694;BME280;23531;50.122;8.644;2023-11-19T10:40:58;100138.34;;;12.53;100.00
37694;BME280;23531;50.122;8.644;2023-11-19T10:43:01;100136.13;;;12.50;100.00
37694;BME280;23531;50.122;8.644;2023-11-19T10:45:03;100137.06;;;12.55;100.00
37694;BME280;23531;50.122;8.644;2023-11-19T10:47:05;100136.16;;;12.61;100.00
37694;BME280;23531;50.122;8.644;2023-11-19T10:49:07;100134.41;;;12.67;100.00
37694;BME280;23531;50.122;8.644;2023-11-19T10:51:08;100129.59;;;12.69;100.00
37694;BME280;23531;50.122;8.644;2023-11-19T10:53:12;100117.53;;;12.71;100.00
37694;BME280;23531;50.122;8.644;2023-11-19T10:55:14;100123.03;;;12.77;100.00
37694;BME280;23531;50.122;8.644;2023-11-19T10:57:17;100106.06;;;12.88;100.00
37694;BME280;23531;50.122;8.644;2023-11-19T10:59:21;100103.63;;;12.98;100.00
37694;BME280;23531;50.122;8.644;2023-11-19T11:01:23;100118.16;;;12.97;100.00
37694;BME280;23531;50.122;8.644;2023-11-19T11:03:25;100121.56;;;13.04;100.00
37694;BME280;23531;50.122;8.644;2023-11-19T11:05:27;100114.66;;;13.08;95.98
37694;BME280;23531;50.122;8.644;2023-11-19T11:07:28;100109.00;;;13.09;89.36
37694;BME280;23531;50.122;8.644;2023-11-19T11:09:32;100110.00;;;13.15;87.31
37694;BME280;23531;50.122;8.644;2023-11-19T11:11:33;100103.63;;;13.21;81.65
37694;BME280;23531;50.122;8.644;2023-11-19T11:13:35;100091.56;;;13.24;79.00
37694;BME280;23531;50.122;8.644;2023-11-19T11:15:38;100092.59;;;13.23;78.41
37694;BME280;23531;50.122;8.644;2023-11-19T11:17:39;100083.47;;;13.24;78.09
37694;BME280;23531;50.122;8.644;2023-11-19T11:19:42;100088.63;;;13.25;77.39
37694;BME280;23531;50.122;8.644;2023-11-19T11:21:44;100084.88;;;13.26;76.11
37694;BME280;23531;50.122;8.644;2023-11-19T11:23:52;100088.16;;;13.28;77.60
37694;BME280;23531;50.122;8.644;2023-11-19T11:26:00;100098.38;;;13.26;76.88
37694;BME280;23531;50.122;8.644;2023-11-19T11:28:07;100081.94;;;13.28;73.79
37694;BME280;23531;50.122;8.644;2023-11-19T11:30:15;100098.25;;;13.21;73.90
37694;BME280;23531;50.122;8.644;2023-11-19T11:32:22;100092.75;;;13.16;74.36
37694;BME280;23531;50.122;8.644;2023-11-19T11:34:44;100093.34;;;13.18;73.92
37694;BME280;23531;50.122;8.644;2023-11-19T11:36:53;100092.84;;;13.21;74.43
37694;BME280;23531;50.122;8.644;2023-11-19T11:38:55;100101.19;;;13.20;75.01
37694;BME280;23531;50.122;8.644;2023-11-19T11:41:17;100106.94;;;13.23;73.95
37694;BME280;23531;50.122;8.644;2023-11-19T11:45:39;100096.63;;;13.20;71.59
37694;BME280;23531;50.122;8.644;2023-11-19T11:50:05;100100.94;;;13.21;71.69
37694;BME280;23531;50.122;8.644;2023-11-19T11:52:07;100091.47;;;13.19;72.22
37694;BME280;23531;50.122;8.644;2023-11-19T11:54:25;100092.59;;;13.23;71.53
37694;BME280;23531;50.122;8.644;2023-11-19T11:56:33;100086.75;;;13.26;71.43
37694;BME280;23531;50.122;8.644;2023-11-19T11:58:37;100091.44;;;13.30;72.34
37694;BME280;23531;50.122;8.644;2023-11-19T12:00:39;100088.84;;;13.35;72.60
37694;BME280;23531;50.122;8.644;2023-11-19T12:02:40;100087.19;;;13.34;72.94
37694;BME280;23531;50.122;8.644;2023-11-19T12:04:41;100075.34;;;13.35;71.74
37694;BME280;23531;50.122;8.644;2023-11-19T12:06:42;100082.63;;;13.35;71.50
37694;BME280;23531;50.122;8.644;2023-11-19T12:08:43;100072.66;;;13.35;70.71
37694;BME280;23531;50.122;8.644;2023-11-19T12:10:45;100078.50;;;13.32;71.03
37694;BME280;23531;50.122;8.644;2023-11-19T12:12:48;100089.31;;;13.32;71.00
37694;BME280;23531;50.122;8.644;2023-11-19T12:15:00;100079.34;;;13.33;71.36
37694;BME280;23531;50.122;8.644;2023-11-19T12:17:03;100078.78;;;13.31;71.34
37694;BME280;23531;50.122;8.644;2023-11-19T12:19:04;100078.50;;;13.32;71.66
37694;BME280;23531;50.122;8.644;2023-11-19T12:21:07;100082.03;;;13.33;70.19
37694;BME280;23531;50.122;8.644;2023-11-19T12:23:10;100077.22;;;13.35;70.70
37694;BME280;23531;50.122;8.644;2023-11-19T12:25:11;100079.34;;;13.33;71.56
37694;BME280;23531;50.122;8.644;2023-11-19T12:27:13;100078.88;;;13.36;71.83
37694;BME280;23531;50.122;8.644;2023-11-19T12:29:17;100082.16;;;13.38;71.86
37694;BME280;23531;50.122;8.644;2023-11-19T12:31:20;100065.00;;;13.44;72.77
37694;BME280;23531;50.122;8.644;2023-11-19T12:33:21;100064.75;;;13.45;72.25
37694;BME280;23531;50.122;8.644;2023-11-19T12:35:22;100069.94;;;13.47;73.54
37694;BME280;23531;50.122;8.644;2023-11-19T12:37:23;100061.13;;;13.52;73.09
37694;BME280;23531;50.122;8.644;2023-11-19T12:39:29;100063.00;;;13.51;73.66
37694;BME280;23531;50.122;8.644;2023-11-19T12:41:30;100072.72;;;13.64;72.62
37694;BME280;23531;50.122;8.644;2023-11-19T12:43:31;100058.72;;;13.67;72.42